sensor_id;sensor_type;location;lat;lon;timestamp;pressure;altitude;pressure_sealevel;temperature;humidity
79221;BME280;68648;52.114;5.424;2023-04-24T00:01:03;99894.63;;;8.36;90.79
79221;BME280;68648;52.114;5.424;2023-04-24T00:03:33;99894.91;;;8.33;90.65
79221;BME280;68648;52.114;5.424;2023-04-24T00:06:01;99896.56;;;8.34;91.60
79221;BME280;68648;52.114;5.424;2023-04-24T00:08:28;99894.91;;;8.33;90.78
79221;BME280;68648;52.114;5.424;2023-04-24T00:10:55;99899.22;;;8.34;90.97
79221;BME280;68648;52.114;5.424;2023-04-24T00:13:22;99906.97;;;8.35;91.13
79221;BME280;68648;52.114;5.424;2023-04-24T00:15:48;99907.81;;;8.36;91.15
79221;BME280;68648;52.114;5.424;2023-04-24T00:18:14;99897.25;;;8.36;91.20
79221;BME280;68648;52.114;5.424;2023-04-24T00:20:41;99909.47;;;8.37;90.61
79221;BME280;68648;52.114;5.424;2023-04-24T00:23:09;99915.56;;;8.37;91.00
79221;BME280;68648;52.114;5.424;2023-04-24T00:25:36;99915.56;;;8.37;91.43
79221;BME280;68648;52.114;5.424;2023-04-24T00:28:02;99916.41;;;8.38;91.16
79221;BME280;68648;52.114;5.424;2023-04-24T00:30:29;99930.56;;;8.37;91.06
79221;BME280;68648;52.114;5.424;2023-04-24T00:32:56;99921.81;;;8.36;91.33
79221;BME280;68648;52.114;5.424;2023-04-24T00:35:23;99912.25;;;8.35;90.95
79221;BME280;68648;52.114;5.424;2023-04-24T00:37:50;99913.47;;;8.31;91.02
79221;BME280;68648;52.114;5.424;2023-04-24T00:40:17;99920.88;;;8.28;91.32
79221;BME280;68648;52.114;5.424;2023-04-24T00:42:44;99925.59;;;8.24;90.90
79221;BME280;68648;52.114;5.424;2023-04-24T00:45:11;99926.41;;;8.25;91.20
79221;BME280;68648;52.114;5.424;2023-04-24T00:47:38;99920.19;;;8.26;91.01
79221;BME280;68648;52.114;5.424;2023-04-24T00:50:06;99930.72;;;8.26;91.60
79221;BME280;68648;52.114;5.424;2023-04-24T00:52:33;99922.66;;;8.27;91.42
79221;BME280;68648;52.114;5.424;2023-04-24T00:54:59;99932.22;;;8.28;91.43
79221;BME280;68648;52.114;5.424;2023-04-24T00:57:26;99942.59;;;8.30;91.49
79221;BME280;68648;52.114;5.424;2023-04-24T00:59:53;99947.03;;;8.29;91.36
79221;BME280;68648;52.114;5.424;2023-04-24T01:02:21;99945.38;;;8.28;91.14
79221;BME280;68648;52.114;5.424;2023-04-24T01:04:50;99941.78;;;8.29;90.99
79221;BME280;68648;52.114;5.424;2023-04-24T01:07:20;99947.72;;;8.31;91.65
79221;BME280;68648;52.114;5.424;2023-04-24T01:09:48;99949.53;;;8.31;91.05
79221;BME280;68648;52.114;5.424;2023-04-24T01:12:15;99953.97;;;8.30;91.36
79221;BME280;68648;52.114;5.424;2023-04-24T01:14:42;99947.03;;;8.29;91.40
79221;BME280;68648;52.114;5.424;2023-04-24T01:17:09;99948.72;;;8.30;91.58
79221;BME280;68648;52.114;5.424;2023-04-24T01:19:35;99952.50;;;8.28;91.10
79221;BME280;68648;52.114;5.424;2023-04-24T01:22:11;99951.50;;;8.29;91.44
79221;BME280;68648;52.114;5.424;2023-04-24T01:24:38;99955.13;;;8.28;91.50
79221;BME280;68648;52.114;5.424;2023-04-24T01:27:06;99953.28;;;8.28;91.62
79221;BME280;68648;52.114;5.424;2023-04-24T01:29:34;99959.41;;;8.29;91.00
79221;BME280;68648;52.114;5.424;2023-04-24T01:32:00;99962.84;;;8.29;91.66
79221;BME280;68648;52.114;5.424;2023-04-24T01:34:27;99963.69;;;8.30;91.22
79221;BME280;68648;52.114;5.424;2023-04-24T01:36:54;99961.78;;;8.32;91.21
79221;BME280;68648;52.114;5.424;2023-04-24T01:39:20;99956.38;;;8.33;91.29
79221;BME280;68648;52.114;5.424;2023-04-24T01:41:49;99956.06;;;8.36;91.54
79221;BME280;68648;52.114;5.424;2023-04-24T01:44:17;99958.44;;;8.39;91.59
79221;BME280;68648;52.114;5.424;2023-04-24T01:46:44;99962.72;;;8.40;91.76
79221;BME280;68648;52.114;5.424;2023-04-24T01:49:10;99962.59;;;8.42;91.23
79221;BME280;68648;52.114;5.424;2023-04-24T01:51:37;99961.75;;;8.41;91.69
79221;BME280;68648;52.114;5.424;2023-04-24T01:54:04;99971.97;;;8.45;91.18
79221;BME280;68648;52.114;5.424;2023-04-24T01:56:33;99970.16;;;8.45;91.67
79221;BME280;68648;52.114;5.424;2023-04-24T01:59:02;99973.63;;;8.46;91.75
79221;BME280;68648;52.114;5.424;2023-04-24T02:01:36;99965.72;;;8.46;91.69
79221;BME280;68648;52.114;5.424;2023-04-24T02:04:04;99961.97;;;8.48;91.81
79221;BME280;68648;52.114;5.424;2023-04-24T02:06:31;99971.31;;;8.43;91.77
79221;BME280;68648;52.114;5.424;2023-04-24T02:08:59;99969.81;;;8.40;91.44
79221;BME280;68648;52.114;5.424;2023-04-24T02:11:26;99958.56;;;8.38;91.35
79221;BME280;68648;52.114;5.424;2023-04-24T02:13:52;99965.66;;;8.37;91.00
79221;BME280;68648;52.114;5.424;2023-04-24T02:16:19;99968.28;;;8.37;91.47
79221;BME280;68648;52.114;5.424;2023-04-24T02:18:46;99963.00;;;8.37;91.44
79221;BME280;68648;52.114;5.424;2023-04-24T02:21:12;99969.13;;;8.38;91.21
79221;BME280;68648;52.114;5.424;2023-04-24T02:23:38;99963.84;;;8.38;91.49
79221;BME280;68648;52.114;5.424;2023-04-24T02:26:05;99961.06;;;8.39;91.66
79221;BME280;68648;52.114;5.424;2023-04-24T02:28:32;99962.88;;;8.39;91.71
79221;BME280;68648;52.114;5.424;2023-04-24T02:30:58;99968.81;;;8.41;91.59
79221;BME280;68648;52.114;5.424;2023-04-24T02:33:24;99961.06;;;8.39;92.01
79221;BME280;68648;52.114;5.424;2023-04-24T02:35:51;99961.19;;;8.38;91.87
79221;BME280;68648;52.114;5.424;2023-04-24T02:38:17;99964.66;;;8.38;91.63
79221;BME280;68648;52.114;5.424;2023-04-24T02:40:44;99964.66;;;8.38;91.31
79221;BME280;68648;52.114;5.424;2023-04-24T02:43:10;99965.50;;;8.39;91.40
79221;BME280;68648;52.114;5.424;2023-04-24T02:45:37;99964.53;;;8.40;91.55
79221;BME280;68648;52.114;5.424;2023-04-24T02:48:04;99963.69;;;8.39;91.94
79221;BME280;68648;52.114;5.424;2023-04-24T02:50:32;99968.00;;;8.40;92.21
79221;BME280;68648;52.114;5.424;2023-04-24T02:52:59;99970.50;;;8.42;91.91
79221;BME280;68648;52.114;5.424;2023-04-24T02:55:26;99966.19;;;8.41;91.85
79221;BME280;68648;52.114;5.424;2023-04-24T02:57:53;99972.28;;;8.41;91.79
79221;BME280;68648;52.114;5.424;2023-04-24T03:00:19;99967.84;;;8.42;91.90
79221;BME280;68648;52.114;5.424;2023-04-24T03:02:46;99962.59;;;8.42;91.92
79221;BME280;68648;52.114;5.424;2023-04-24T03:05:13;99962.59;;;8.42;91.48
79221;BME280;68648;52.114;5.424;2023-04-24T03:07:39;99965.22;;;8.42;91.79
79221;BME280;68648;52.114;5.424;2023-04-24T03:10:07;99966.19;;;8.41;91.73
79221;BME280;68648;52.114;5.424;2023-04-24T03:12:34;99957.59;;;8.39;91.80
79221;BME280;68648;52.114;5.424;2023-04-24T03:15:00;99968.97;;;8.39;91.85
79221;BME280;68648;52.114;5.424;2023-04-24T03:17:27;99970.09;;;8.37;91.62
79221;BME280;68648;52.114;5.424;2023-04-24T03:19:53;99971.75;;;8.38;91.99
79221;BME280;68648;52.114;5.424;2023-04-24T03:22:20;99965.66;;;8.37;91.72
79221;BME280;68648;52.114;5.424;2023-04-24T03:24:46;99968.13;;;8.39;92.00
79221;BME280;68648;52.114;5.424;2023-04-24T03:27:12;99963.00;;;8.37;91.79
79221;BME280;68648;52.114;5.424;2023-04-24T03:29:39;99966.47;;;8.38;92.14
79221;BME280;68648;52.114;5.424;2023-04-24T03:32:06;99968.13;;;8.39;92.21
79221;BME280;68648;52.114;5.424;2023-04-24T03:34:32;99968.13;;;8.39;92.18
79221;BME280;68648;52.114;5.424;2023-04-24T03:36:58;99968.81;;;8.41;92.26
79221;BME280;68648;52.114;5.424;2023-04-24T03:39:25;99976.03;;;8.39;92.16
79221;BME280;68648;52.114;5.424;2023-04-24T03:41:51;99967.16;;;8.40;92.00
79221;BME280;68648;52.114;5.424;2023-04-24T03:44:18;99975.75;;;8.42;91.88
79221;BME280;68648;52.114;5.424;2023-04-24T03:46:44;99968.53;;;8.44;92.13
79221;BME280;68648;52.114;5.424;2023-04-24T03:49:11;99970.03;;;8.47;92.18
79221;BME280;68648;52.114;5.424;2023-04-24T03:51:37;99969.19;;;8.46;92.20
79221;BME280;68648;52.114;5.424;2023-04-24T03:54:05;99969.50;;;8.43;92.64
79221;BME280;68648;52.114;5.424;2023-04-24T03:56:31;99970.16;;;8.45;92.43
79221;BME280;68648;52.114;5.424;2023-04-24T03:58:58;99974.78;;;8.43;92.37
79221;BME280;68648;52.114;5.424;2023-04-24T04:01:24;99969.81;;;8.40;92.42
79221;BME280;68648;52.114;5.424;2023-04-24T04:03:51;99981.19;;;8.40;92.54
79221;BME280;68648;52.114;5.424;2023-04-24T04:06:17;99983.13;;;8.38;92.63
79221;BME280;68648;52.114;5.424;2023-04-24T04:08:45;99983.25;;;8.37;92.62
79221;BME280;68648;52.114;5.424;2023-04-24T04:11:11;99991.03;;;8.38;92.70
79221;BME280;68648;52.114;5.424;2023-04-24T04:13:38;99995.47;;;8.38;92.59
79221;BME280;68648;52.114;5.424;2023-04-24T04:16:05;99997.97;;;8.39;92.83
79221;BME280;68648;52.114;5.424;2023-04-24T04:18:34;99995.31;;;8.39;92.83
79221;BME280;68648;52.114;5.424;2023-04-24T04:21:00;99996.16;;;8.40;93.03
79221;BME280;68648;52.114;5.424;2023-04-24T04:23:27;99991.88;;;8.39;92.93
79221;BME280;68648;52.114;5.424;2023-04-24T04:25:54;100000.59;;;8.39;92.90
79221;BME280;68648;52.114;5.424;2023-04-24T04:28:21;100000.59;;;8.39;93.04
79221;BME280;68648;52.114;5.424;2023-04-24T04:30:47;99997.13;;;8.39;92.89
79221;BME280;68648;52.114;5.424;2023-04-24T04:33:13;100009.63;;;8.37;93.22
79221;BME280;68648;52.114;5.424;2023-04-24T04:35:40;100000.19;;;8.34;93.13
79221;BME280;68648;52.114;5.424;2023-04-24T04:38:07;100004.63;;;8.34;93.33
79221;BME280;68648;52.114;5.424;2023-04-24T04:40:34;100000.19;;;8.34;93.15
79221;BME280;68648;52.114;5.424;2023-04-24T04:43:01;100015.88;;;8.36;93.35
79221;BME280;68648;52.114;5.424;2023-04-24T04:45:28;100016.84;;;8.35;92.98
79221;BME280;68648;52.114;5.424;2023-04-24T04:47:55;100017.81;;;8.34;93.21
79221;BME280;68648;52.114;5.424;2023-04-24T04:50:22;100030.31;;;8.32;93.26
79221;BME280;68648;52.114;5.424;2023-04-24T04:52:49;100026.81;;;8.31;93.01
79221;BME280;68648;52.114;5.424;2023-04-24T04:55:15;100025.13;;;8.30;93.03
79221;BME280;68648;52.114;5.424;2023-04-24T04:57:43;100027.78;;;8.30;93.09
79221;BME280;68648;52.114;5.424;2023-04-24T05:00:10;100032.06;;;8.31;92.93
79221;BME280;68648;52.114;5.424;2023-04-24T05:02:39;100036.41;;;8.32;93.21
79221;BME280;68648;52.114;5.424;2023-04-24T05:05:06;100037.22;;;8.33;92.97
79221;BME280;68648;52.114;5.424;2023-04-24T05:07:33;100039.03;;;8.32;93.00
79221;BME280;68648;52.114;5.424;2023-04-24T05:10:00;100040.94;;;8.30;92.90
79221;BME280;68648;52.114;5.424;2023-04-24T05:12:26;100052.31;;;8.31;93.20
79221;BME280;68648;52.114;5.424;2023-04-24T05:14:53;100061.50;;;8.36;93.42
79221;BME280;68648;52.114;5.424;2023-04-24T05:17:19;100056.94;;;8.38;93.21
79221;BME280;68648;52.114;5.424;2023-04-24T05:19:46;100058.44;;;8.41;93.08
79221;BME280;68648;52.114;5.424;2023-04-24T05:22:15;100064.84;;;8.38;93.07
79221;BME280;68648;52.114;5.424;2023-04-24T05:24:43;100066.50;;;8.39;93.25
79221;BME280;68648;52.114;5.424;2023-04-24T05:27:10;100069.09;;;8.49;93.36
79221;BME280;68648;52.114;5.424;2023-04-24T05:29:38;100075.06;;;8.51;93.09
79221;BME280;68648;52.114;5.424;2023-04-24T05:32:06;100083.38;;;8.56;93.40
79221;BME280;68648;52.114;5.424;2023-04-24T05:34:33;100084.34;;;8.55;93.39
79221;BME280;68648;52.114;5.424;2023-04-24T05:36:59;100096.69;;;8.55;93.36
79221;BME280;68648;52.114;5.424;2023-04-24T05:39:26;100096.97;;;8.52;93.07
79221;BME280;68648;52.114;5.424;2023-04-24T05:41:54;100095.59;;;8.48;93.13
79221;BME280;68648;52.114;5.424;2023-04-24T05:44:24;100106.84;;;8.50;93.34
79221;BME280;68648;52.114;5.424;2023-04-24T05:46:51;100113.06;;;8.49;93.27
79221;BME280;68648;52.114;5.424;2023-04-24T05:49:17;100114.59;;;8.51;93.15
79221;BME280;68648;52.114;5.424;2023-04-24T05:51:44;100124.72;;;8.46;93.34
79221;BME280;68648;52.114;5.424;2023-04-24T05:54:10;100116.97;;;8.45;93.44
79221;BME280;68648;52.114;5.424;2023-04-24T05:56:38;100123.66;;;8.39;93.34
79221;BME280;68648;52.114;5.424;2023-04-24T05:59:08;100127.53;;;8.35;93.12
79221;BME280;68648;52.114;5.424;2023-04-24T06:01:35;100122.53;;;8.32;92.84
79221;BME280;68648;52.114;5.424;2023-04-24T06:04:03;100134.34;;;8.28;93.33
79221;BME280;68648;52.114;5.424;2023-04-24T06:06:30;100143.50;;;8.24;93.48
79221;BME280;68648;52.114;5.424;2023-04-24T06:08:57;100156.09;;;8.20;93.28
79221;BME280;68648;52.114;5.424;2023-04-24T06:11:24;100152.34;;;8.13;93.11
79221;BME280;68648;52.114;5.424;2023-04-24T06:13:51;100162.22;;;8.11;93.06
79221;BME280;68648;52.114;5.424;2023-04-24T06:16:18;100160.69;;;8.08;93.14
79221;BME280;68648;52.114;5.424;2023-04-24T06:18:45;100161.94;;;8.04;93.33
79221;BME280;68648;52.114;5.424;2023-04-24T06:21:13;100173.44;;;8.03;93.10
79221;BME280;68648;52.114;5.424;2023-04-24T06:23:40;100171.09;;;8.00;93.51
79221;BME280;68648;52.114;5.424;2023-04-24T06:26:06;100173.97;;;7.97;93.13
79221;BME280;68648;52.114;5.424;2023-04-24T06:28:33;100177.19;;;7.91;93.16
79221;BME280;68648;52.114;5.424;2023-04-24T06:31:01;100187.88;;;7.90;93.00
79221;BME280;68648;52.114;5.424;2023-04-24T06:33:28;100192.69;;;7.85;92.89
79221;BME280;68648;52.114;5.424;2023-04-24T06:35:54;100196.56;;;7.81;93.25
79221;BME280;68648;52.114;5.424;2023-04-24T06:38:21;100203.78;;;7.79;93.18
79221;BME280;68648;52.114;5.424;2023-04-24T06:40:47;100207.09;;;7.81;93.15
79221;BME280;68648;52.114;5.424;2023-04-24T06:43:14;100210.56;;;7.81;93.19
79221;BME280;68648;52.114;5.424;2023-04-24T06:45:41;100216.41;;;7.85;93.01
79221;BME280;68648;52.114;5.424;2023-04-24T06:48:10;100230.00;;;7.90;93.11
79221;BME280;68648;52.114;5.424;2023-04-24T06:50:37;100230.56;;;7.93;93.03
79221;BME280;68648;52.114;5.424;2023-04-24T06:53:04;100240.97;;;7.95;93.13
79221;BME280;68648;52.114;5.424;2023-04-24T06:55:30;100237.50;;;7.94;93.27
79221;BME280;68648;52.114;5.424;2023-04-24T06:58:06;100256.91;;;7.93;93.10
79221;BME280;68648;52.114;5.424;2023-04-24T07:00:32;100245.81;;;7.90;93.28
79221;BME280;68648;52.114;5.424;2023-04-24T07:02:59;100260.50;;;7.92;93.40
79221;BME280;68648;52.114;5.424;2023-04-24T07:05:26;100264.13;;;7.91;92.81
79221;BME280;68648;52.114;5.424;2023-04-24T07:07:52;100272.00;;;7.91;93.30
79221;BME280;68648;52.114;5.424;2023-04-24T07:10:19;100284.09;;;7.94;92.95
79221;BME280;68648;52.114;5.424;2023-04-24T07:12:47;100286.16;;;7.90;93.30
79221;BME280;68648;52.114;5.424;2023-04-24T07:15:14;100296.13;;;7.87;93.05
79221;BME280;68648;52.114;5.424;2023-04-24T07:17:40;100294.44;;;7.86;93.14
79221;BME280;68648;52.114;5.424;2023-04-24T07:20:13;100301.38;;;7.87;92.89
79221;BME280;68648;52.114;5.424;2023-04-24T07:22:43;100325.34;;;7.84;93.05
79221;BME280;68648;52.114;5.424;2023-04-24T07:25:10;100319.25;;;7.83;93.25
79221;BME280;68648;52.114;5.424;2023-04-24T07:27:36;100339.75;;;7.80;92.80
79221;BME280;68648;52.114;5.424;2023-04-24T07:30:04;100337.66;;;7.73;92.69
79221;BME280;68648;52.114;5.424;2023-04-24T07:32:31;100335.84;;;7.74;93.00
79221;BME280;68648;52.114;5.424;2023-04-24T07:34:58;100346.53;;;7.72;93.13
79221;BME280;68648;52.114;5.424;2023-04-24T07:37:25;100354.41;;;7.72;92.75
79221;BME280;68648;52.114;5.424;2023-04-24T07:39:52;100358.84;;;7.72;92.98
79221;BME280;68648;52.114;5.424;2023-04-24T07:42:18;100366.38;;;7.77;93.07
79221;BME280;68648;52.114;5.424;2023-04-24T07:44:47;100371.63;;;7.77;92.73
79221;BME280;68648;52.114;5.424;2023-04-24T07:47:14;100384.66;;;7.78;92.64
79221;BME280;68648;52.114;5.424;2023-04-24T07:49:42;100386.19;;;7.81;93.06
79221;BME280;68648;52.114;5.424;2023-04-24T07:52:09;100387.84;;;7.82;92.95
79221;BME280;68648;52.114;5.424;2023-04-24T07:54:35;100386.88;;;7.83;93.14
79221;BME280;68648;52.114;5.424;2023-04-24T07:57:05;100399.81;;;7.86;93.36
79221;BME280;68648;52.114;5.424;2023-04-24T07:59:32;100404.94;;;7.87;93.17
79221;BME280;68648;52.114;5.424;2023-04-24T08:01:59;100408.84;;;7.93;92.96
79221;BME280;68648;52.114;5.424;2023-04-24T08:04:27;100400.00;;;7.94;92.69
79221;BME280;68648;52.114;5.424;2023-04-24T08:06:54;100406.94;;;7.95;92.85
79221;BME280;68648;52.114;5.424;2023-04-24T08:09:20;100420.94;;;7.95;92.99
79221;BME280;68648;52.114;5.424;2023-04-24T08:11:52;100426.34;;;7.94;92.86
79221;BME280;68648;52.114;5.424;2023-04-24T08:14:19;100434.63;;;7.89;92.90
79221;BME280;68648;52.114;5.424;2023-04-24T08:16:46;100433.34;;;7.84;92.86
79221;BME280;68648;52.114;5.424;2023-04-24T08:19:13;100445.66;;;7.83;92.51
79221;BME280;68648;52.114;5.424;2023-04-24T08:21:39;100454.81;;;7.79;92.61
79221;BME280;68648;52.114;5.424;2023-04-24T08:24:06;100466.31;;;7.78;92.37
79221;BME280;68648;52.114;5.424;2023-04-24T08:26:34;100474.06;;;7.80;92.63
79221;BME280;68648;52.114;5.424;2023-04-24T08:29:00;100468.63;;;7.71;92.46
79221;BME280;68648;52.114;5.424;2023-04-24T08:31:27;100481.19;;;7.68;92.55
79221;BME280;68648;52.114;5.424;2023-04-24T08:33:54;100491.84;;;7.66;92.46
79221;BME280;68648;52.114;5.424;2023-04-24T08:36:20;100488.84;;;7.71;92.45
79221;BME280;68648;52.114;5.424;2023-04-24T08:38:50;100493.31;;;7.80;92.97
79221;BME280;68648;52.114;5.424;2023-04-24T08:41:17;100497.50;;;7.83;92.70
79221;BME280;68648;52.114;5.424;2023-04-24T08:43:46;100497.72;;;7.91;92.51
79221;BME280;68648;52.114;5.424;2023-04-24T08:46:13;100507.59;;;7.98;92.73
79221;BME280;68648;52.114;5.424;2023-04-24T08:48:42;100502.91;;;8.02;91.88
79221;BME280;68648;52.114;5.424;2023-04-24T08:51:09;100512.94;;;8.08;92.47
79221;BME280;68648;52.114;5.424;2023-04-24T08:53:37;100519.03;;;8.08;91.61
79221;BME280;68648;52.114;5.424;2023-04-24T08:56:05;100517.63;;;8.04;91.06
79221;BME280;68648;52.114;5.424;2023-04-24T08:58:31;100526.69;;;8.12;91.85
79221;BME280;68648;52.114;5.424;2023-04-24T09:00:58;100537.66;;;8.17;90.95
79221;BME280;68648;52.114;5.424;2023-04-24T09:03:27;100541.00;;;8.19;91.63
79221;BME280;68648;52.114;5.424;2023-04-24T09:05:55;100541.94;;;8.18;91.76
79221;BME280;68648;52.114;5.424;2023-04-24T09:08:24;100543.75;;;8.17;91.37
79221;BME280;68648;52.114;5.424;2023-04-24T09:10:51;100557.91;;;8.16;91.39
79221;BME280;68648;52.114;5.424;2023-04-24T09:13:19;100559.09;;;8.12;89.50
79221;BME280;68648;52.114;5.424;2023-04-24T09:15:46;100557.31;;;8.13;88.87
79221;BME280;68648;52.114;5.424;2023-04-24T09:18:14;100559.19;;;8.22;88.28
79221;BME280;68648;52.114;5.424;2023-04-24T09:23:32;100571.06;;;8.58;87.55
79221;BME280;68648;52.114;5.424;2023-04-24T09:26:00;100579.56;;;8.71;86.99
79221;BME280;68648;52.114;5.424;2023-04-24T09:28:36;100585.13;;;8.77;86.49
79221;BME280;68648;52.114;5.424;2023-04-24T09:33:36;100589.56;;;9.07;85.10
79221;BME280;68648;52.114;5.424;2023-04-24T09:36:02;100589.59;;;9.27;86.32
79221;BME280;68648;52.114;5.424;2023-04-24T09:38:37;100591.69;;;9.42;84.62
79221;BME280;68648;52.114;5.424;2023-04-24T09:41:06;100590.19;;;9.59;86.85
79221;BME280;68648;52.114;5.424;2023-04-24T09:43:35;100592.72;;;9.70;84.51
79221;BME280;68648;52.114;5.424;2023-04-24T09:46:06;100605.78;;;9.81;83.98
79221;BME280;68648;52.114;5.424;2023-04-24T09:48:35;100612.72;;;9.82;81.32
79221;BME280;68648;52.114;5.424;2023-04-24T09:51:04;100614.53;;;9.63;83.09
79221;BME280;68648;52.114;5.424;2023-04-24T09:53:33;100612.13;;;9.31;82.06
79221;BME280;68648;52.114;5.424;2023-04-24T09:56:09;100624.78;;;8.97;80.22
79221;BME280;68648;52.114;5.424;2023-04-24T09:58:38;100638.34;;;8.83;82.21
79221;BME280;68648;52.114;5.424;2023-04-24T10:01:04;100627.16;;;8.60;78.47
79221;BME280;68648;52.114;5.424;2023-04-24T10:03:32;100633.56;;;8.46;80.25
79221;BME280;68648;52.114;5.424;2023-04-24T10:06:03;100639.16;;;8.53;84.06
79221;BME280;68648;52.114;5.424;2023-04-24T10:08:36;100638.66;;;8.59;80.57
79221;BME280;68648;52.114;5.424;2023-04-24T10:11:04;100644.56;;;8.72;84.40
79221;BME280;68648;52.114;5.424;2023-04-24T10:13:32;100640.34;;;8.90;82.66
79221;BME280;68648;52.114;5.424;2023-04-24T10:16:00;100646.47;;;9.00;81.60
79221;BME280;68648;52.114;5.424;2023-04-24T10:18:27;100648.59;;;9.06;80.94
79221;BME280;68648;52.114;5.424;2023-04-24T10:20:54;100648.88;;;9.13;79.96
79221;BME280;68648;52.114;5.424;2023-04-24T10:23:24;100650.59;;;9.24;82.19
79221;BME280;68648;52.114;5.424;2023-04-24T10:25:52;100653.91;;;9.26;80.16
79221;BME280;68648;52.114;5.424;2023-04-24T10:28:19;100659.34;;;9.24;82.23
79221;BME280;68648;52.114;5.424;2023-04-24T10:30:47;100663.03;;;9.12;81.88
79221;BME280;68648;52.114;5.424;2023-04-24T10:33:14;100662.97;;;9.23;84.44
79221;BME280;68648;52.114;5.424;2023-04-24T10:35:46;100673.88;;;9.49;82.86
79221;BME280;68648;52.114;5.424;2023-04-24T10:38:23;100659.44;;;9.63;77.92
79221;BME280;68648;52.114;5.424;2023-04-24T10:40:57;100669.03;;;9.64;79.35
79221;BME280;68648;52.114;5.424;2023-04-24T10:43:33;100670.31;;;9.69;80.51
79221;BME280;68648;52.114;5.424;2023-04-24T10:46:04;100679.94;;;9.90;78.80
79221;BME280;68648;52.114;5.424;2023-04-24T10:48:32;100671.28;;;10.07;79.11
79221;BME280;68648;52.114;5.424;2023-04-24T10:50:58;100686.31;;;9.97;78.86
79221;BME280;68648;52.114;5.424;2023-04-24T10:53:29;100692.56;;;9.96;80.16
79221;BME280;68648;52.114;5.424;2023-04-24T10:56:04;100688.97;;;9.87;81.26
79221;BME280;68648;52.114;5.424;2023-04-24T10:58:50;100689.66;;;9.89;81.44
79221;BME280;68648;52.114;5.424;2023-04-24T11:03:54;100697.03;;;9.95;78.25
79221;BME280;68648;52.114;5.424;2023-04-24T11:06:34;100696.00;;;9.67;80.22
79221;BME280;68648;52.114;5.424;2023-04-24T11:09:08;100691.78;;;9.45;77.71
79221;BME280;68648;52.114;5.424;2023-04-24T11:11:37;100692.72;;;9.35;80.16
79221;BME280;68648;52.114;5.424;2023-04-24T11:14:07;100701.31;;;9.27;80.08
79221;BME280;68648;52.114;5.424;2023-04-24T11:16:44;100710.25;;;9.05;77.83
79221;BME280;68648;52.114;5.424;2023-04-24T11:21:54;100724.94;;;8.77;80.93
79221;BME280;68648;52.114;5.424;2023-04-24T11:24:29;100738.16;;;8.57;81.98
79221;BME280;68648;52.114;5.424;2023-04-24T11:27:16;100747.41;;;8.51;85.50
79221;BME280;68648;52.114;5.424;2023-04-24T11:30:04;100747.88;;;8.56;85.94
79221;BME280;68648;52.114;5.424;2023-04-24T11:32:42;100745.38;;;8.75;87.71
79221;BME280;68648;52.114;5.424;2023-04-24T11:35:20;100743.88;;;9.03;87.56
79221;BME280;68648;52.114;5.424;2023-04-24T11:37:49;100745.41;;;9.36;86.70
79221;BME280;68648;52.114;5.424;2023-04-24T11:40:20;100747.69;;;9.60;86.83
79221;BME280;68648;52.114;5.424;2023-04-24T11:42:51;100734.19;;;10.03;85.19
79221;BME280;68648;52.114;5.424;2023-04-24T11:45:26;100742.13;;;10.03;82.39
79221;BME280;68648;52.114;5.424;2023-04-24T11:47:56;100747.28;;;10.05;77.90
79221;BME280;68648;52.114;5.424;2023-04-24T11:50:25;100748.25;;;10.13;77.30
79221;BME280;68648;52.114;5.424;2023-04-24T11:52:53;100752.88;;;10.60;76.96
79221;BME280;68648;52.114;5.424;2023-04-24T11:57:48;100750.84;;;11.00;78.07
79221;BME280;68648;52.114;5.424;2023-04-24T12:00:20;100761.59;;;10.89;76.47
79221;BME280;68648;52.114;5.424;2023-04-24T12:02:48;100766.88;;;10.89;79.65
79221;BME280;68648;52.114;5.424;2023-04-24T12:05:24;100767.41;;;11.12;78.39
79221;BME280;68648;52.114;5.424;2023-04-24T12:07:53;100775.63;;;11.18;72.03
79221;BME280;68648;52.114;5.424;2023-04-24T12:10:21;100779.59;;;10.85;73.50
79221;BME280;68648;52.114;5.424;2023-04-24T12:12:53;100781.41;;;10.56;73.67
79221;BME280;68648;52.114;5.424;2023-04-24T12:15:24;100777.66;;;10.49;79.73
79221;BME280;68648;52.114;5.424;2023-04-24T12:17:52;100781.69;;;10.43;77.00
79221;BME280;68648;52.114;5.424;2023-04-24T12:20:31;100789.06;;;10.30;72.56
79221;BME280;68648;52.114;5.424;2023-04-24T12:23:00;100796.53;;;10.15;72.35
79221;BME280;68648;52.114;5.424;2023-04-24T12:25:32;100796.94;;;10.01;74.19
79221;BME280;68648;52.114;5.424;2023-04-24T12:30:39;100800.47;;;10.31;70.84
79221;BME280;68648;52.114;5.424;2023-04-24T12:33:09;100798.56;;;10.71;72.53
79221;BME280;68648;52.114;5.424;2023-04-24T12:35:40;100795.09;;;11.27;70.21
79221;BME280;68648;52.114;5.424;2023-04-24T12:38:13;100802.63;;;11.69;71.91
79221;BME280;68648;52.114;5.424;2023-04-24T12:40:42;100797.69;;;11.74;69.92
79221;BME280;68648;52.114;5.424;2023-04-24T12:43:15;100802.84;;;11.38;65.91
79221;BME280;68648;52.114;5.424;2023-04-24T12:45:43;100802.13;;;10.90;66.47
79221;BME280;68648;52.114;5.424;2023-04-24T12:48:12;100811.22;;;10.48;68.01
79221;BME280;68648;52.114;5.424;2023-04-24T12:50:43;100825.38;;;10.19;66.46
79221;BME280;68648;52.114;5.424;2023-04-24T12:53:13;100824.59;;;10.07;67.14
79221;BME280;68648;52.114;5.424;2023-04-24T12:55:40;100824.06;;;10.03;70.68
79221;BME280;68648;52.114;5.424;2023-04-24T12:58:07;100830.72;;;10.07;71.95
79221;BME280;68648;52.114;5.424;2023-04-24T13:00:34;100825.88;;;10.12;70.76
79221;BME280;68648;52.114;5.424;2023-04-24T13:03:00;100836.44;;;10.03;67.60
79221;BME280;68648;52.114;5.424;2023-04-24T13:05:28;100830.84;;;9.96;67.96
79221;BME280;68648;52.114;5.424;2023-04-24T13:07:55;100844.19;;;9.95;69.62
79221;BME280;68648;52.114;5.424;2023-04-24T13:10:21;100846.09;;;9.83;71.73
79221;BME280;68648;52.114;5.424;2023-04-24T13:13:10;100858.25;;;9.65;72.47
79221;BME280;68648;52.114;5.424;2023-04-24T13:15:39;100857.28;;;9.66;69.67
79221;BME280;68648;52.114;5.424;2023-04-24T13:52:34;100863.56;;;11.12;59.04
79221;BME280;68648;52.114;5.424;2023-04-24T13:59:15;100868.31;;;10.90;58.07
79221;BME280;68648;52.114;5.424;2023-04-24T14:02:08;100868.34;;;11.55;54.88